sensor_id;sensor_type;location;lat;lon;timestamp;P1;durP1;ratioP1;P2;durP2;ratioP2
35126;SDS011;21300;52.006;5.798;2023-06-24T00:00:39;6.35;;;5.07;;
35126;SDS011;21300;52.006;5.798;2023-06-24T00:03:04;6.25;;;5.20;;
35126;SDS011;21300;52.006;5.798;2023-06-24T00:05:32;6.97;;;4.97;;
35126;SDS011;21300;52.006;5.798;2023-06-24T00:07:58;5.45;;;4.85;;
35126;SDS011;21300;52.006;5.798;2023-06-24T00:10:27;7.25;;;5.15;;
35126;SDS011;21300;52.006;5.798;2023-06-24T00:12:54;6.05;;;5.45;;
35126;SDS011;21300;52.006;5.798;2023-06-24T00:15:20;5.63;;;5.03;;
35126;SDS011;21300;52.006;5.798;2023-06-24T00:17:45;6.13;;;5.47;;
35126;SDS011;21300;52.006;5.798;2023-06-24T00:20:11;7.93;;;5.18;;
35126;SDS011;21300;52.006;5.798;2023-06-24T00:22:39;6.00;;;5.40;;
35126;SDS011;21300;52.006;5.798;2023-06-24T00:25:09;5.90;;;5.30;;
35126;SDS011;21300;52.006;5.798;2023-06-24T00:27:35;6.10;;;5.13;;
35126;SDS011;21300;52.006;5.798;2023-06-24T00:30:00;7.80;;;4.95;;
35126;SDS011;21300;52.006;5.798;2023-06-24T00:32:26;7.05;;;5.55;;
35126;SDS011;21300;52.006;5.798;2023-06-24T00:34:51;7.55;;;5.47;;
35126;SDS011;21300;52.006;5.798;2023-06-24T00:37:17;6.30;;;4.85;;
35126;SDS011;21300;52.006;5.798;2023-06-24T00:39:42;6.85;;;5.18;;
35126;SDS011;21300;52.006;5.798;2023-06-24T00:42:08;5.90;;;5.03;;
35126;SDS011;21300;52.006;5.798;2023-06-24T00:44:34;6.28;;;5.28;;
35126;SDS011;21300;52.006;5.798;2023-06-24T00:47:02;6.05;;;5.05;;
35126;SDS011;21300;52.006;5.798;2023-06-24T00:49:28;6.32;;;5.13;;
35126;SDS011;21300;52.006;5.798;2023-06-24T00:51:54;7.50;;;5.68;;
35126;SDS011;21300;52.006;5.798;2023-06-24T00:54:20;8.88;;;5.68;;
35126;SDS011;21300;52.006;5.798;2023-06-24T00:57:05;5.60;;;4.78;;
35126;SDS011;21300;52.006;5.798;2023-06-24T00:59:30;6.65;;;5.50;;
35126;SDS011;21300;52.006;5.798;2023-06-24T01:01:56;7.85;;;5.35;;
35126;SDS011;21300;52.006;5.798;2023-06-24T01:04:22;7.50;;;4.93;;
35126;SDS011;21300;52.006;5.798;2023-06-24T01:06:49;6.78;;;5.57;;
35126;SDS011;21300;52.006;5.798;2023-06-24T01:09:15;6.40;;;4.88;;
35126;SDS011;21300;52.006;5.798;2023-06-24T01:11:41;5.30;;;4.80;;
35126;SDS011;21300;52.006;5.798;2023-06-24T01:14:06;5.75;;;5.10;;
35126;SDS011;21300;52.006;5.798;2023-06-24T01:16:46;6.53;;;4.82;;
35126;SDS011;21300;52.006;5.798;2023-06-24T01:19:44;5.90;;;5.32;;
35126;SDS011;21300;52.006;5.798;2023-06-24T01:22:19;6.95;;;5.40;;
35126;SDS011;21300;52.006;5.798;2023-06-24T01:25:25;7.97;;;6.00;;
35126;SDS011;21300;52.006;5.798;2023-06-24T01:28:04;9.80;;;6.25;;
35126;SDS011;21300;52.006;5.798;2023-06-24T01:33:18;8.07;;;6.40;;
35126;SDS011;21300;52.006;5.798;2023-06-24T01:35:50;8.30;;;6.18;;
35126;SDS011;21300;52.006;5.798;2023-06-24T01:38:24;8.00;;;6.70;;
35126;SDS011;21300;52.006;5.798;2023-06-24T01:40:57;8.50;;;6.63;;
35126;SDS011;21300;52.006;5.798;2023-06-24T01:43:23;8.10;;;7.03;;
35126;SDS011;21300;52.006;5.798;2023-06-24T01:45:51;8.02;;;5.90;;
35126;SDS011;21300;52.006;5.798;2023-06-24T01:48:23;7.72;;;5.80;;
35126;SDS011;21300;52.006;5.798;2023-06-24T01:50:59;7.47;;;5.57;;
35126;SDS011;21300;52.006;5.798;2023-06-24T01:53:28;6.57;;;5.63;;
35126;SDS011;21300;52.006;5.798;2023-06-24T01:55:57;7.90;;;5.55;;
35126;SDS011;21300;52.006;5.798;2023-06-24T01:58:25;8.18;;;5.35;;
35126;SDS011;21300;52.006;5.798;2023-06-24T02:00:51;8.15;;;5.30;;
35126;SDS011;21300;52.006;5.798;2023-06-24T02:03:17;6.60;;;5.40;;
35126;SDS011;21300;52.006;5.798;2023-06-24T02:05:44;6.03;;;5.38;;
35126;SDS011;21300;52.006;5.798;2023-06-24T02:08:11;6.13;;;5.10;;
35126;SDS011;21300;52.006;5.798;2023-06-24T02:10:39;5.78;;;5.10;;
35126;SDS011;21300;52.006;5.798;2023-06-24T02:13:05;6.68;;;5.53;;
35126;SDS011;21300;52.006;5.798;2023-06-24T02:15:33;8.50;;;6.03;;
35126;SDS011;21300;52.006;5.798;2023-06-24T02:18:00;10.13;;;5.53;;
35126;SDS011;21300;52.006;5.798;2023-06-24T02:20:28;7.75;;;5.63;;
35126;SDS011;21300;52.006;5.798;2023-06-24T02:22:56;7.88;;;5.70;;
35126;SDS011;21300;52.006;5.798;2023-06-24T02:25:23;7.28;;;5.80;;
35126;SDS011;21300;52.006;5.798;2023-06-24T02:27:51;7.22;;;5.95;;
35126;SDS011;21300;52.006;5.798;2023-06-24T02:30:18;7.00;;;5.40;;
35126;SDS011;21300;52.006;5.798;2023-06-24T02:32:45;6.85;;;5.82;;
35126;SDS011;21300;52.006;5.798;2023-06-24T02:35:11;8.00;;;5.70;;
35126;SDS011;21300;52.006;5.798;2023-06-24T02:37:37;6.55;;;5.80;;
35126;SDS011;21300;52.006;5.798;2023-06-24T02:40:03;7.18;;;6.05;;
35126;SDS011;21300;52.006;5.798;2023-06-24T02:42:30;9.45;;;6.10;;
35126;SDS011;21300;52.006;5.798;2023-06-24T02:44:56;6.90;;;6.20;;
35126;SDS011;21300;52.006;5.798;2023-06-24T02:47:21;7.78;;;6.35;;
35126;SDS011;21300;52.006;5.798;2023-06-24T02:49:48;8.05;;;6.25;;
35126;SDS011;21300;52.006;5.798;2023-06-24T02:52:16;6.30;;;5.70;;
35126;SDS011;21300;52.006;5.798;2023-06-24T02:54:42;7.32;;;5.78;;
35126;SDS011;21300;52.006;5.798;2023-06-24T02:57:08;7.07;;;6.10;;
35126;SDS011;21300;52.006;5.798;2023-06-24T02:59:34;7.82;;;5.93;;
35126;SDS011;21300;52.006;5.798;2023-06-24T03:02:01;7.72;;;6.40;;
35126;SDS011;21300;52.006;5.798;2023-06-24T03:04:28;8.35;;;6.43;;
35126;SDS011;21300;52.006;5.798;2023-06-24T03:06:54;6.60;;;5.93;;
35126;SDS011;21300;52.006;5.798;2023-06-24T03:09:21;14.68;;;6.78;;
35126;SDS011;21300;52.006;5.798;2023-06-24T03:11:48;7.10;;;6.00;;
35126;SDS011;21300;52.006;5.798;2023-06-24T03:14:13;8.27;;;6.50;;
35126;SDS011;21300;52.006;5.798;2023-06-24T03:16:39;7.68;;;6.32;;
35126;SDS011;21300;52.006;5.798;2023-06-24T03:19:04;9.63;;;6.63;;
35126;SDS011;21300;52.006;5.798;2023-06-24T03:21:30;7.25;;;6.25;;
35126;SDS011;21300;52.006;5.798;2023-06-24T03:23:56;8.95;;;6.07;;
35126;SDS011;21300;52.006;5.798;2023-06-24T03:26:24;12.93;;;7.10;;
35126;SDS011;21300;52.006;5.798;2023-06-24T03:28:57;7.60;;;6.80;;
35126;SDS011;21300;52.006;5.798;2023-06-24T03:31:22;10.55;;;7.43;;
35126;SDS011;21300;52.006;5.798;2023-06-24T03:33:48;7.10;;;6.40;;
35126;SDS011;21300;52.006;5.798;2023-06-24T03:36:14;8.55;;;6.30;;
35126;SDS011;21300;52.006;5.798;2023-06-24T03:38:40;7.32;;;6.57;;
35126;SDS011;21300;52.006;5.798;2023-06-24T03:41:06;8.32;;;6.13;;
35126;SDS011;21300;52.006;5.798;2023-06-24T03:43:31;8.80;;;6.32;;
35126;SDS011;21300;52.006;5.798;2023-06-24T03:45:57;7.97;;;5.97;;
35126;SDS011;21300;52.006;5.798;2023-06-24T03:48:22;7.43;;;6.72;;
35126;SDS011;21300;52.006;5.798;2023-06-24T03:50:48;8.57;;;6.55;;
35126;SDS011;21300;52.006;5.798;2023-06-24T03:53:14;7.95;;;6.63;;
35126;SDS011;21300;52.006;5.798;2023-06-24T03:55:39;7.55;;;6.65;;
35126;SDS011;21300;52.006;5.798;2023-06-24T03:58:05;7.20;;;6.50;;
35126;SDS011;21300;52.006;5.798;2023-06-24T04:00:31;7.10;;;6.20;;
35126;SDS011;21300;52.006;5.798;2023-06-24T04:02:56;7.72;;;6.38;;
35126;SDS011;21300;52.006;5.798;2023-06-24T04:05:26;7.55;;;6.85;;
35126;SDS011;21300;52.006;5.798;2023-06-24T04:07:51;8.38;;;6.30;;
35126;SDS011;21300;52.006;5.798;2023-06-24T04:10:18;6.95;;;6.25;;
35126;SDS011;21300;52.006;5.798;2023-06-24T04:12:44;8.77;;;6.28;;
35126;SDS011;21300;52.006;5.798;2023-06-24T04:15:10;8.40;;;6.57;;
35126;SDS011;21300;52.006;5.798;2023-06-24T04:17:36;7.40;;;6.15;;
35126;SDS011;21300;52.006;5.798;2023-06-24T04:20:02;7.28;;;6.40;;
35126;SDS011;21300;52.006;5.798;2023-06-24T04:22:30;7.88;;;6.15;;
35126;SDS011;21300;52.006;5.798;2023-06-24T04:24:56;8.27;;;6.50;;
35126;SDS011;21300;52.006;5.798;2023-06-24T04:27:22;8.48;;;5.88;;
35126;SDS011;21300;52.006;5.798;2023-06-24T04:29:47;6.85;;;6.05;;
35126;SDS011;21300;52.006;5.798;2023-06-24T04:32:16;6.78;;;6.18;;
35126;SDS011;21300;52.006;5.798;2023-06-24T04:34:45;8.48;;;6.30;;
35126;SDS011;21300;52.006;5.798;2023-06-24T04:37:11;7.22;;;6.20;;
35126;SDS011;21300;52.006;5.798;2023-06-24T04:39:36;7.82;;;6.03;;
35126;SDS011;21300;52.006;5.798;2023-06-24T04:42:02;8.20;;;6.22;;
35126;SDS011;21300;52.006;5.798;2023-06-24T04:44:27;7.03;;;6.32;;
35126;SDS011;21300;52.006;5.798;2023-06-24T04:46:53;6.80;;;6.13;;
35126;SDS011;21300;52.006;5.798;2023-06-24T04:49:19;9.50;;;6.50;;
35126;SDS011;21300;52.006;5.798;2023-06-24T04:51:44;9.70;;;6.72;;
35126;SDS011;21300;52.006;5.798;2023-06-24T04:54:10;7.78;;;7.00;;
35126;SDS011;21300;52.006;5.798;2023-06-24T04:56:37;11.52;;;7.47;;
35126;SDS011;21300;52.006;5.798;2023-06-24T04:59:04;7.13;;;6.35;;
35126;SDS011;21300;52.006;5.798;2023-06-24T05:01:30;9.23;;;7.20;;
35126;SDS011;21300;52.006;5.798;2023-06-24T05:03:55;7.35;;;6.63;;
35126;SDS011;21300;52.006;5.798;2023-06-24T05:06:21;8.00;;;7.20;;
35126;SDS011;21300;52.006;5.798;2023-06-24T05:08:46;7.80;;;6.72;;
35126;SDS011;21300;52.006;5.798;2023-06-24T05:11:12;7.38;;;6.25;;
35126;SDS011;21300;52.006;5.798;2023-06-24T05:13:37;9.15;;;6.40;;
35126;SDS011;21300;52.006;5.798;2023-06-24T05:16:03;9.25;;;6.75;;
35126;SDS011;21300;52.006;5.798;2023-06-24T05:18:29;8.73;;;7.00;;
35126;SDS011;21300;52.006;5.798;2023-06-24T05:20:54;8.52;;;7.20;;
35126;SDS011;21300;52.006;5.798;2023-06-24T05:23:20;11.30;;;8.55;;
35126;SDS011;21300;52.006;5.798;2023-06-24T05:25:46;10.20;;;8.70;;
35126;SDS011;21300;52.006;5.798;2023-06-24T05:28:11;13.20;;;8.90;;
35126;SDS011;21300;52.006;5.798;2023-06-24T05:30:37;11.23;;;9.07;;
35126;SDS011;21300;52.006;5.798;2023-06-24T05:33:03;12.88;;;9.20;;
35126;SDS011;21300;52.006;5.798;2023-06-24T05:35:28;11.68;;;9.00;;
35126;SDS011;21300;52.006;5.798;2023-06-24T05:37:54;10.35;;;8.85;;
35126;SDS011;21300;52.006;5.798;2023-06-24T05:40:20;9.32;;;8.32;;
35126;SDS011;21300;52.006;5.798;2023-06-24T05:42:45;9.90;;;8.20;;
35126;SDS011;21300;52.006;5.798;2023-06-24T05:45:11;12.70;;;9.20;;
35126;SDS011;21300;52.006;5.798;2023-06-24T05:47:37;10.25;;;8.98;;
35126;SDS011;21300;52.006;5.798;2023-06-24T05:50:03;13.57;;;8.55;;
35126;SDS011;21300;52.006;5.798;2023-06-24T05:52:29;10.82;;;8.60;;
35126;SDS011;21300;52.006;5.798;2023-06-24T05:54:55;11.48;;;8.15;;
35126;SDS011;21300;52.006;5.798;2023-06-24T05:57:20;11.52;;;7.82;;
35126;SDS011;21300;52.006;5.798;2023-06-24T05:59:46;10.38;;;7.60;;
35126;SDS011;21300;52.006;5.798;2023-06-24T06:02:11;10.65;;;6.97;;
35126;SDS011;21300;52.006;5.798;2023-06-24T06:04:38;9.93;;;7.15;;
35126;SDS011;21300;52.006;5.798;2023-06-24T06:07:04;10.50;;;7.00;;
35126;SDS011;21300;52.006;5.798;2023-06-24T06:09:29;10.45;;;6.00;;
35126;SDS011;21300;52.006;5.798;2023-06-24T06:11:55;9.13;;;6.25;;
35126;SDS011;21300;52.006;5.798;2023-06-24T06:14:20;10.52;;;5.95;;
35126;SDS011;21300;52.006;5.798;2023-06-24T06:16:46;9.75;;;6.70;;
35126;SDS011;21300;52.006;5.798;2023-06-24T06:19:12;10.95;;;6.13;;
35126;SDS011;21300;52.006;5.798;2023-06-24T06:21:37;7.93;;;6.00;;
35126;SDS011;21300;52.006;5.798;2023-06-24T06:24:03;7.85;;;5.65;;
35126;SDS011;21300;52.006;5.798;2023-06-24T06:26:29;8.60;;;6.47;;
35126;SDS011;21300;52.006;5.798;2023-06-24T06:28:54;9.30;;;6.60;;
35126;SDS011;21300;52.006;5.798;2023-06-24T06:31:20;10.50;;;6.97;;
35126;SDS011;21300;52.006;5.798;2023-06-24T06:33:46;10.02;;;6.80;;
35126;SDS011;21300;52.006;5.798;2023-06-24T06:36:12;10.75;;;6.57;;
35126;SDS011;21300;52.006;5.798;2023-06-24T06:38:38;10.40;;;7.03;;
35126;SDS011;21300;52.006;5.798;2023-06-24T06:41:05;13.25;;;7.45;;
35126;SDS011;21300;52.006;5.798;2023-06-24T06:43:31;12.77;;;7.57;;
35126;SDS011;21300;52.006;5.798;2023-06-24T06:45:58;12.77;;;8.05;;
35126;SDS011;21300;52.006;5.798;2023-06-24T06:48:24;8.38;;;6.43;;
35126;SDS011;21300;52.006;5.798;2023-06-24T06:50:49;8.98;;;6.60;;
35126;SDS011;21300;52.006;5.798;2023-06-24T06:53:15;9.55;;;7.05;;
35126;SDS011;21300;52.006;5.798;2023-06-24T06:55:41;11.95;;;6.32;;
35126;SDS011;21300;52.006;5.798;2023-06-24T06:58:08;7.57;;;6.40;;
35126;SDS011;21300;52.006;5.798;2023-06-24T07:00:33;9.90;;;7.38;;
35126;SDS011;21300;52.006;5.798;2023-06-24T07:02:59;8.00;;;6.35;;
35126;SDS011;21300;52.006;5.798;2023-06-24T07:05:24;11.25;;;6.15;;
35126;SDS011;21300;52.006;5.798;2023-06-24T07:07:50;8.95;;;6.45;;
35126;SDS011;21300;52.006;5.798;2023-06-24T07:10:15;8.05;;;6.38;;
35126;SDS011;21300;52.006;5.798;2023-06-24T07:12:42;9.65;;;5.70;;
35126;SDS011;21300;52.006;5.798;2023-06-24T07:15:08;8.30;;;6.07;;
35126;SDS011;21300;52.006;5.798;2023-06-24T07:17:34;8.85;;;6.10;;
35126;SDS011;21300;52.006;5.798;2023-06-24T07:20:00;9.93;;;6.20;;
35126;SDS011;21300;52.006;5.798;2023-06-24T07:22:25;9.90;;;6.22;;
35126;SDS011;21300;52.006;5.798;2023-06-24T07:24:51;10.13;;;5.93;;
35126;SDS011;21300;52.006;5.798;2023-06-24T07:27:16;8.25;;;6.05;;
35126;SDS011;21300;52.006;5.798;2023-06-24T07:29:42;8.23;;;5.53;;
35126;SDS011;21300;52.006;5.798;2023-06-24T07:32:08;7.72;;;4.90;;
35126;SDS011;21300;52.006;5.798;2023-06-24T07:34:33;8.95;;;4.60;;
35126;SDS011;21300;52.006;5.798;2023-06-24T07:36:59;7.15;;;4.65;;
35126;SDS011;21300;52.006;5.798;2023-06-24T07:39:24;6.30;;;4.32;;
35126;SDS011;21300;52.006;5.798;2023-06-24T07:41:50;7.35;;;4.78;;
35126;SDS011;21300;52.006;5.798;2023-06-24T07:44:16;8.38;;;5.45;;
35126;SDS011;21300;52.006;5.798;2023-06-24T07:46:41;5.93;;;4.40;;
35126;SDS011;21300;52.006;5.798;2023-06-24T07:49:07;7.72;;;4.85;;
35126;SDS011;21300;52.006;5.798;2023-06-24T07:51:32;8.23;;;5.38;;
35126;SDS011;21300;52.006;5.798;2023-06-24T07:54:00;7.18;;;4.47;;
35126;SDS011;21300;52.006;5.798;2023-06-24T07:56:25;7.07;;;4.22;;
35126;SDS011;21300;52.006;5.798;2023-06-24T07:58:51;9.05;;;5.78;;
35126;SDS011;21300;52.006;5.798;2023-06-24T08:01:16;5.93;;;4.22;;
35126;SDS011;21300;52.006;5.798;2023-06-24T08:03:42;7.00;;;4.35;;
35126;SDS011;21300;52.006;5.798;2023-06-24T08:06:08;7.72;;;5.00;;
35126;SDS011;21300;52.006;5.798;2023-06-24T08:08:33;6.60;;;4.28;;
35126;SDS011;21300;52.006;5.798;2023-06-24T08:11:01;4.45;;;3.55;;
35126;SDS011;21300;52.006;5.798;2023-06-24T08:13:27;4.40;;;2.90;;
35126;SDS011;21300;52.006;5.798;2023-06-24T08:15:53;6.60;;;3.70;;
35126;SDS011;21300;52.006;5.798;2023-06-24T08:18:19;4.85;;;3.33;;
35126;SDS011;21300;52.006;5.798;2023-06-24T08:20:44;5.30;;;3.60;;
35126;SDS011;21300;52.006;5.798;2023-06-24T08:23:10;6.00;;;4.25;;
35126;SDS011;21300;52.006;5.798;2023-06-24T08:25:35;6.28;;;3.92;;
35126;SDS011;21300;52.006;5.798;2023-06-24T08:28:01;10.20;;;4.35;;
35126;SDS011;21300;52.006;5.798;2023-06-24T08:30:26;4.95;;;3.63;;
35126;SDS011;21300;52.006;5.798;2023-06-24T08:32:52;5.68;;;4.32;;
35126;SDS011;21300;52.006;5.798;2023-06-24T08:35:18;6.57;;;3.50;;
35126;SDS011;21300;52.006;5.798;2023-06-24T08:37:43;5.43;;;3.60;;
35126;SDS011;21300;52.006;5.798;2023-06-24T08:40:09;4.78;;;2.97;;
35126;SDS011;21300;52.006;5.798;2023-06-24T08:42:35;4.78;;;3.03;;
35126;SDS011;21300;52.006;5.798;2023-06-24T08:45:01;5.50;;;3.40;;
35126;SDS011;21300;52.006;5.798;2023-06-24T08:47:27;4.35;;;3.35;;
35126;SDS011;21300;52.006;5.798;2023-06-24T08:50:01;8.73;;;3.95;;
35126;SDS011;21300;52.006;5.798;2023-06-24T08:52:29;6.82;;;4.20;;
35126;SDS011;21300;52.006;5.798;2023-06-24T08:55:00;6.60;;;4.25;;
35126;SDS011;21300;52.006;5.798;2023-06-24T08:57:31;6.60;;;3.70;;
35126;SDS011;21300;52.006;5.798;2023-06-24T08:59:56;4.72;;;3.38;;
35126;SDS011;21300;52.006;5.798;2023-06-24T09:02:22;6.35;;;3.67;;
35126;SDS011;21300;52.006;5.798;2023-06-24T09:04:50;6.75;;;4.00;;
35126;SDS011;21300;52.006;5.798;2023-06-24T09:07:26;6.82;;;4.30;;
35126;SDS011;21300;52.006;5.798;2023-06-24T09:09:55;6.65;;;4.35;;
35126;SDS011;21300;52.006;5.798;2023-06-24T09:12:21;6.65;;;4.20;;
35126;SDS011;21300;52.006;5.798;2023-06-24T09:14:48;5.22;;;3.67;;
35126;SDS011;21300;52.006;5.798;2023-06-24T09:17:15;6.93;;;3.92;;
35126;SDS011;21300;52.006;5.798;2023-06-24T09:19:41;5.70;;;3.97;;
35126;SDS011;21300;52.006;5.798;2023-06-24T09:22:07;6.97;;;4.65;;
35126;SDS011;21300;52.006;5.798;2023-06-24T09:24:34;9.02;;;4.95;;
35126;SDS011;21300;52.006;5.798;2023-06-24T09:27:00;8.25;;;5.20;;
35126;SDS011;21300;52.006;5.798;2023-06-24T09:29:35;7.32;;;5.47;;
35126;SDS011;21300;52.006;5.798;2023-06-24T09:32:04;8.02;;;6.45;;
35126;SDS011;21300;52.006;5.798;2023-06-24T09:34:31;8.40;;;6.22;;
35126;SDS011;21300;52.006;5.798;2023-06-24T09:36:58;10.25;;;5.90;;
35126;SDS011;21300;52.006;5.798;2023-06-24T09:39:24;8.55;;;6.13;;
35126;SDS011;21300;52.006;5.798;2023-06-24T09:41:54;9.70;;;6.45;;
35126;SDS011;21300;52.006;5.798;2023-06-24T09:44:20;7.88;;;5.57;;
35126;SDS011;21300;52.006;5.798;2023-06-24T09:46:46;10.07;;;6.63;;
35126;SDS011;21300;52.006;5.798;2023-06-24T09:49:12;10.88;;;7.03;;
35126;SDS011;21300;52.006;5.798;2023-06-24T09:51:39;13.52;;;7.28;;
35126;SDS011;21300;52.006;5.798;2023-06-24T09:54:10;10.73;;;6.68;;
35126;SDS011;21300;52.006;5.798;2023-06-24T09:56:36;12.38;;;7.93;;
35126;SDS011;21300;52.006;5.798;2023-06-24T09:59:04;10.75;;;7.80;;
35126;SDS011;21300;52.006;5.798;2023-06-24T10:01:35;9.95;;;7.20;;
35126;SDS011;21300;52.006;5.798;2023-06-24T10:04:04;10.43;;;7.13;;
35126;SDS011;21300;52.006;5.798;2023-06-24T10:06:31;10.02;;;6.95;;
35126;SDS011;21300;52.006;5.798;2023-06-24T10:08:58;11.40;;;6.72;;
35126;SDS011;21300;52.006;5.798;2023-06-24T10:11:25;10.35;;;6.97;;
35126;SDS011;21300;52.006;5.798;2023-06-24T10:13:51;10.52;;;7.05;;
35126;SDS011;21300;52.006;5.798;2023-06-24T10:16:17;12.15;;;7.28;;
35126;SDS011;21300;52.006;5.798;2023-06-24T10:18:43;10.63;;;6.88;;
35126;SDS011;21300;52.006;5.798;2023-06-24T10:21:10;10.25;;;5.95;;
35126;SDS011;21300;52.006;5.798;2023-06-24T10:26:27;17.33;;;8.00;;
35126;SDS011;21300;52.006;5.798;2023-06-24T10:39:39;9.30;;;6.47;;
35126;SDS011;21300;52.006;5.798;2023-06-24T10:47:35;9.07;;;6.30;;
35126;SDS011;21300;52.006;5.798;2023-06-24T10:50:09;10.90;;;6.88;;
35126;SDS011;21300;52.006;5.798;2023-06-24T10:52:40;10.10;;;6.90;;
35126;SDS011;21300;52.006;5.798;2023-06-24T10:55:07;9.52;;;6.45;;
35126;SDS011;21300;52.006;5.798;2023-06-24T10:57:33;8.95;;;5.43;;
35126;SDS011;21300;52.006;5.798;2023-06-24T11:00:00;7.22;;;5.63;;
35126;SDS011;21300;52.006;5.798;2023-06-24T11:02:28;6.25;;;5.15;;
35126;SDS011;21300;52.006;5.798;2023-06-24T11:05:00;7.00;;;5.30;;
35126;SDS011;21300;52.006;5.798;2023-06-24T11:07:31;7.65;;;5.75;;
35126;SDS011;21300;52.006;5.798;2023-06-24T11:10:12;9.20;;;6.07;;
35126;SDS011;21300;52.006;5.798;2023-06-24T11:12:39;6.55;;;5.30;;
35126;SDS011;21300;52.006;5.798;2023-06-24T11:15:09;10.60;;;5.90;;
35126;SDS011;21300;52.006;5.798;2023-06-24T11:17:36;8.07;;;6.55;;
35126;SDS011;21300;52.006;5.798;2023-06-24T11:20:21;9.48;;;6.38;;
35126;SDS011;21300;52.006;5.798;2023-06-24T11:22:46;11.00;;;6.82;;
35126;SDS011;21300;52.006;5.798;2023-06-24T11:25:18;8.43;;;5.85;;
35126;SDS011;21300;52.006;5.798;2023-06-24T11:27:46;7.85;;;6.53;;
35126;SDS011;21300;52.006;5.798;2023-06-24T11:30:12;6.38;;;4.30;;
35126;SDS011;21300;52.006;5.798;2023-06-24T11:32:39;7.68;;;5.05;;
35126;SDS011;21300;52.006;5.798;2023-06-24T11:35:07;6.70;;;5.75;;
35126;SDS011;21300;52.006;5.798;2023-06-24T11:37:34;7.88;;;5.70;;
35126;SDS011;21300;52.006;5.798;2023-06-24T11:40:00;10.45;;;5.85;;
35126;SDS011;21300;52.006;5.798;2023-06-24T11:42:30;8.75;;;5.63;;
35126;SDS011;21300;52.006;5.798;2023-06-24T11:45:02;9.52;;;6.72;;
35126;SDS011;21300;52.006;5.798;2023-06-24T11:47:33;6.60;;;5.40;;
35126;SDS011;21300;52.006;5.798;2023-06-24T11:49:59;9.93;;;6.38;;
35126;SDS011;21300;52.006;5.798;2023-06-24T11:52:49;7.78;;;5.32;;
35126;SDS011;21300;52.006;5.798;2023-06-24T11:55:19;7.57;;;5.18;;
35126;SDS011;21300;52.006;5.798;2023-06-24T11:58:19;8.52;;;5.95;;
35126;SDS011;21300;52.006;5.798;2023-06-24T12:00:44;9.23;;;5.35;;
35126;SDS011;21300;52.006;5.798;2023-06-24T12:03:12;10.30;;;4.97;;
35126;SDS011;21300;52.006;5.798;2023-06-24T12:05:38;7.85;;;5.40;;
35126;SDS011;21300;52.006;5.798;2023-06-24T12:08:09;7.07;;;4.80;;
35126;SDS011;21300;52.006;5.798;2023-06-24T12:10:37;5.05;;;4.30;;
35126;SDS011;21300;52.006;5.798;2023-06-24T12:13:03;7.43;;;4.13;;
35126;SDS011;21300;52.006;5.798;2023-06-24T12:15:33;6.47;;;4.55;;
35126;SDS011;21300;52.006;5.798;2023-06-24T12:18:00;5.78;;;4.40;;
35126;SDS011;21300;52.006;5.798;2023-06-24T12:20:26;6.03;;;4.65;;
35126;SDS011;21300;52.006;5.798;2023-06-24T12:22:53;7.07;;;5.00;;
35126;SDS011;21300;52.006;5.798;2023-06-24T12:25:18;8.40;;;5.22;;
35126;SDS011;21300;52.006;5.798;2023-06-24T12:27:44;7.40;;;4.70;;
35126;SDS011;21300;52.006;5.798;2023-06-24T12:30:11;7.70;;;5.35;;
35126;SDS011;21300;52.006;5.798;2023-06-24T12:32:37;6.32;;;5.05;;
35126;SDS011;21300;52.006;5.798;2023-06-24T12:35:02;7.03;;;5.22;;
35126;SDS011;21300;52.006;5.798;2023-06-24T12:37:32;7.05;;;4.97;;
35126;SDS011;21300;52.006;5.798;2023-06-24T12:39:59;7.60;;;4.43;;
35126;SDS011;21300;52.006;5.798;2023-06-24T12:42:25;6.82;;;4.07;;
35126;SDS011;21300;52.006;5.798;2023-06-24T12:44:51;7.43;;;4.00;;
35126;SDS011;21300;52.006;5.798;2023-06-24T12:47:16;7.53;;;3.63;;
35126;SDS011;21300;52.006;5.798;2023-06-24T12:49:43;6.10;;;4.35;;
35126;SDS011;21300;52.006;5.798;2023-06-24T12:52:08;8.13;;;4.55;;
35126;SDS011;21300;52.006;5.798;2023-06-24T12:54:34;7.20;;;4.28;;
35126;SDS011;21300;52.006;5.798;2023-06-24T12:57:01;7.00;;;4.55;;
35126;SDS011;21300;52.006;5.798;2023-06-24T12:59:26;6.20;;;4.13;;
35126;SDS011;21300;52.006;5.798;2023-06-24T13:01:52;6.22;;;3.28;;
35126;SDS011;21300;52.006;5.798;2023-06-24T13:04:18;5.15;;;3.80;;
35126;SDS011;21300;52.006;5.798;2023-06-24T13:06:45;6.10;;;4.32;;
35126;SDS011;21300;52.006;5.798;2023-06-24T13:09:11;7.03;;;4.53;;
35126;SDS011;21300;52.006;5.798;2023-06-24T13:11:37;5.15;;;3.78;;
35126;SDS011;21300;52.006;5.798;2023-06-24T13:14:02;6.63;;;4.13;;
35126;SDS011;21300;52.006;5.798;2023-06-24T13:16:28;6.00;;;4.68;;
35126;SDS011;21300;52.006;5.798;2023-06-24T13:18:54;6.80;;;4.53;;
35126;SDS011;21300;52.006;5.798;2023-06-24T13:21:19;5.10;;;3.72;;
35126;SDS011;21300;52.006;5.798;2023-06-24T13:23:45;7.63;;;4.45;;
35126;SDS011;21300;52.006;5.798;2023-06-24T13:26:12;8.30;;;5.70;;
35126;SDS011;21300;52.006;5.798;2023-06-24T13:28:37;8.50;;;4.68;;
35126;SDS011;21300;52.006;5.798;2023-06-24T13:31:03;9.48;;;4.75;;
35126;SDS011;21300;52.006;5.798;2023-06-24T13:33:30;5.93;;;4.78;;
35126;SDS011;21300;52.006;5.798;2023-06-24T13:35:56;7.32;;;5.68;;
35126;SDS011;21300;52.006;5.798;2023-06-24T13:38:21;8.38;;;5.30;;
35126;SDS011;21300;52.006;5.798;2023-06-24T13:40:47;8.48;;;5.05;;
35126;SDS011;21300;52.006;5.798;2023-06-24T13:43:13;5.55;;;4.25;;
35126;SDS011;21300;52.006;5.798;2023-06-24T13:45:38;5.78;;;4.43;;
35126;SDS011;21300;52.006;5.798;2023-06-24T13:48:04;6.03;;;4.25;;
35126;SDS011;21300;52.006;5.798;2023-06-24T13:50:30;6.63;;;4.50;;
35126;SDS011;21300;52.006;5.798;2023-06-24T13:52:55;7.03;;;4.95;;
35126;SDS011;21300;52.006;5.798;2023-06-24T13:55:21;8.80;;;5.35;;
35126;SDS011;21300;52.006;5.798;2023-06-24T13:57:47;6.60;;;4.28;;
35126;SDS011;21300;52.006;5.798;2023-06-24T14:00:13;5.13;;;4.20;;
35126;SDS011;21300;52.006;5.798;2023-06-24T14:02:39;7.25;;;4.30;;
35126;SDS011;21300;52.006;5.798;2023-06-24T14:05:06;7.30;;;5.22;;
35126;SDS011;21300;52.006;5.798;2023-06-24T14:07:31;6.72;;;4.68;;
35126;SDS011;21300;52.006;5.798;2023-06-24T14:09:58;6.60;;;4.07;;
35126;SDS011;21300;52.006;5.798;2023-06-24T14:12:23;5.07;;;4.20;;
35126;SDS011;21300;52.006;5.798;2023-06-24T14:14:49;7.20;;;5.00;;
35126;SDS011;21300;52.006;5.798;2023-06-24T14:17:15;6.85;;;4.63;;
35126;SDS011;21300;52.006;5.798;2023-06-24T14:19:41;6.22;;;4.97;;
35126;SDS011;21300;52.006;5.798;2023-06-24T14:22:07;8.38;;;5.38;;
35126;SDS011;21300;52.006;5.798;2023-06-24T14:24:33;7.18;;;5.10;;
35126;SDS011;21300;52.006;5.798;2023-06-24T14:26:59;6.38;;;4.32;;
35126;SDS011;21300;52.006;5.798;2023-06-24T14:29:25;8.50;;;5.07;;
35126;SDS011;21300;52.006;5.798;2023-06-24T14:31:52;5.05;;;3.83;;
35126;SDS011;21300;52.006;5.798;2023-06-24T14:34:17;6.00;;;4.35;;
35126;SDS011;21300;52.006;5.798;2023-06-24T14:36:43;5.65;;;4.60;;
35126;SDS011;21300;52.006;5.798;2023-06-24T14:39:09;5.90;;;4.35;;
35126;SDS011;21300;52.006;5.798;2023-06-24T14:41:37;5.53;;;4.75;;
35126;SDS011;21300;52.006;5.798;2023-06-24T14:44:02;6.30;;;4.53;;
35126;SDS011;21300;52.006;5.798;2023-06-24T14:46:28;6.57;;;4.25;;
35126;SDS011;21300;52.006;5.798;2023-06-24T14:48:54;5.60;;;4.20;;
35126;SDS011;21300;52.006;5.798;2023-06-24T14:51:19;5.10;;;4.38;;
35126;SDS011;21300;52.006;5.798;2023-06-24T14:53:45;6.88;;;4.28;;
35126;SDS011;21300;52.006;5.798;2023-06-24T14:56:10;6.03;;;4.07;;
35126;SDS011;21300;52.006;5.798;2023-06-24T14:58:36;5.75;;;4.38;;
35126;SDS011;21300;52.006;5.798;2023-06-24T15:01:01;4.85;;;4.30;;
35126;SDS011;21300;52.006;5.798;2023-06-24T15:03:27;5.55;;;4.70;;
35126;SDS011;21300;52.006;5.798;2023-06-24T15:05:53;5.03;;;4.53;;